sensor_id;sensor_type;location;lat;lon;timestamp;temperature;humidity
38265;DHT22;24062;47.480;8.768;2022-10-31T00:01:24;10.30;69.10
38265;DHT22;24062;47.480;8.768;2022-10-31T00:03:53;10.30;69.20
38265;DHT22;24062;47.480;8.768;2022-10-31T00:06:20;10.40;69.60
38265;DHT22;24062;47.480;8.768;2022-10-31T00:08:47;10.30;69.30
38265;DHT22;24062;47.480;8.768;2022-10-31T00:11:18;10.30;69.10
38265;DHT22;24062;47.480;8.768;2022-10-31T00:13:45;10.20;69.00
38265;DHT22;24062;47.480;8.768;2022-10-31T00:16:15;10.20;69.20
38265;DHT22;24062;47.480;8.768;2022-10-31T00:18:42;10.20;70.00
38265;DHT22;24062;47.480;8.768;2022-10-31T00:21:10;10.20;69.30
38265;DHT22;24062;47.480;8.768;2022-10-31T00:23:37;10.10;69.30
38265;DHT22;24062;47.480;8.768;2022-10-31T00:26:04;10.10;69.20
38265;DHT22;24062;47.480;8.768;2022-10-31T00:28:32;10.10;69.20
38265;DHT22;24062;47.480;8.768;2022-10-31T00:31:00;10.00;69.10
38265;DHT22;24062;47.480;8.768;2022-10-31T00:33:27;10.20;69.40
38265;DHT22;24062;47.480;8.768;2022-10-31T00:35:55;10.00;69.40
38265;DHT22;24062;47.480;8.768;2022-10-31T00:38:24;10.00;69.40
38265;DHT22;24062;47.480;8.768;2022-10-31T00:40:51;10.00;69.30
38265;DHT22;24062;47.480;8.768;2022-10-31T00:43:17;10.00;69.20
38265;DHT22;24062;47.480;8.768;2022-10-31T00:45:44;9.90;70.30
38265;DHT22;24062;47.480;8.768;2022-10-31T00:48:11;9.90;70.30
38265;DHT22;24062;47.480;8.768;2022-10-31T00:50:39;10.00;69.30
38265;DHT22;24062;47.480;8.768;2022-10-31T00:53:06;9.90;70.40
38265;DHT22;24062;47.480;8.768;2022-10-31T00:55:34;9.90;70.40
38265;DHT22;24062;47.480;8.768;2022-10-31T00:58:01;9.90;70.50
38265;DHT22;24062;47.480;8.768;2022-10-31T01:00:28;9.80;70.40
38265;DHT22;24062;47.480;8.768;2022-10-31T01:02:55;9.80;70.40
38265;DHT22;24062;47.480;8.768;2022-10-31T01:05:22;9.80;70.50
38265;DHT22;24062;47.480;8.768;2022-10-31T01:07:49;9.80;70.50
38265;DHT22;24062;47.480;8.768;2022-10-31T01:10:16;9.80;70.50
38265;DHT22;24062;47.480;8.768;2022-10-31T01:12:48;9.70;70.60
38265;DHT22;24062;47.480;8.768;2022-10-31T01:15:17;9.70;70.80
38265;DHT22;24062;47.480;8.768;2022-10-31T01:17:44;9.70;70.70
38265;DHT22;24062;47.480;8.768;2022-10-31T01:20:13;9.70;70.60
38265;DHT22;24062;47.480;8.768;2022-10-31T01:22:40;9.60;70.50
38265;DHT22;24062;47.480;8.768;2022-10-31T01:25:08;9.60;70.60
38265;DHT22;24062;47.480;8.768;2022-10-31T01:27:36;9.60;70.50
38265;DHT22;24062;47.480;8.768;2022-10-31T01:30:05;9.50;70.40
38265;DHT22;24062;47.480;8.768;2022-10-31T01:32:32;9.40;70.70
38265;DHT22;24062;47.480;8.768;2022-10-31T01:34:59;9.50;70.80
38265;DHT22;24062;47.480;8.768;2022-10-31T01:37:26;9.40;70.70
38265;DHT22;24062;47.480;8.768;2022-10-31T01:39:53;9.40;71.00
38265;DHT22;24062;47.480;8.768;2022-10-31T01:42:21;9.40;71.00
38265;DHT22;24062;47.480;8.768;2022-10-31T01:44:55;9.40;71.10
38265;DHT22;24062;47.480;8.768;2022-10-31T01:47:35;9.40;71.30
38265;DHT22;24062;47.480;8.768;2022-10-31T01:50:10;9.30;71.20
38265;DHT22;24062;47.480;8.768;2022-10-31T01:52:39;9.40;71.20
38265;DHT22;24062;47.480;8.768;2022-10-31T01:55:11;9.40;72.00
38265;DHT22;24062;47.480;8.768;2022-10-31T01:57:43;9.30;71.10
38265;DHT22;24062;47.480;8.768;2022-10-31T02:00:12;9.30;71.10
38265;DHT22;24062;47.480;8.768;2022-10-31T02:02:41;9.30;71.00
38265;DHT22;24062;47.480;8.768;2022-10-31T02:05:11;9.20;70.90
38265;DHT22;24062;47.480;8.768;2022-10-31T02:07:43;9.20;71.00
38265;DHT22;24062;47.480;8.768;2022-10-31T02:10:12;9.20;71.10
38265;DHT22;24062;47.480;8.768;2022-10-31T02:12:40;9.20;70.90
38265;DHT22;24062;47.480;8.768;2022-10-31T02:15:09;9.20;71.00
38265;DHT22;24062;47.480;8.768;2022-10-31T02:17:36;9.20;71.00
38265;DHT22;24062;47.480;8.768;2022-10-31T02:20:12;9.20;71.00
38265;DHT22;24062;47.480;8.768;2022-10-31T02:23:13;9.20;71.10
38265;DHT22;24062;47.480;8.768;2022-10-31T02:25:56;9.10;71.00
38265;DHT22;24062;47.480;8.768;2022-10-31T02:28:40;9.10;71.20
38265;DHT22;24062;47.480;8.768;2022-10-31T02:31:23;9.10;71.50
38265;DHT22;24062;47.480;8.768;2022-10-31T02:33:57;9.10;71.40
38265;DHT22;24062;47.480;8.768;2022-10-31T02:36:28;9.10;71.40
38265;DHT22;24062;47.480;8.768;2022-10-31T02:39:05;9.10;71.30
38265;DHT22;24062;47.480;8.768;2022-10-31T02:41:40;9.10;71.30
38265;DHT22;24062;47.480;8.768;2022-10-31T02:44:16;9.00;71.30
38265;DHT22;24062;47.480;8.768;2022-10-31T02:46:49;9.00;71.50
38265;DHT22;24062;47.480;8.768;2022-10-31T02:49:22;9.00;71.50
38265;DHT22;24062;47.480;8.768;2022-10-31T02:51:50;9.00;71.40
38265;DHT22;24062;47.480;8.768;2022-10-31T02:54:18;8.90;71.40
38265;DHT22;24062;47.480;8.768;2022-10-31T02:56:46;8.90;71.40
38265;DHT22;24062;47.480;8.768;2022-10-31T02:59:15;8.90;71.40
38265;DHT22;24062;47.480;8.768;2022-10-31T03:01:55;8.80;71.40
38265;DHT22;24062;47.480;8.768;2022-10-31T03:04:39;8.90;71.70
38265;DHT22;24062;47.480;8.768;2022-10-31T03:07:14;8.80;71.50
38265;DHT22;24062;47.480;8.768;2022-10-31T03:09:52;8.80;71.50
38265;DHT22;24062;47.480;8.768;2022-10-31T03:12:26;8.80;71.70
38265;DHT22;24062;47.480;8.768;2022-10-31T03:15:00;8.80;71.80
38265;DHT22;24062;47.480;8.768;2022-10-31T03:17:36;8.80;72.50
38265;DHT22;24062;47.480;8.768;2022-10-31T03:20:07;8.80;71.80
38265;DHT22;24062;47.480;8.768;2022-10-31T03:22:38;8.80;71.70
38265;DHT22;24062;47.480;8.768;2022-10-31T03:25:07;8.80;71.90
38265;DHT22;24062;47.480;8.768;2022-10-31T03:27:38;8.70;71.90
38265;DHT22;24062;47.480;8.768;2022-10-31T03:30:06;8.70;72.00
38265;DHT22;24062;47.480;8.768;2022-10-31T03:32:38;8.70;72.00
38265;DHT22;24062;47.480;8.768;2022-10-31T03:35:08;8.70;72.10
38265;DHT22;24062;47.480;8.768;2022-10-31T03:37:37;8.70;72.00
38265;DHT22;24062;47.480;8.768;2022-10-31T03:40:07;8.70;72.00
38265;DHT22;24062;47.480;8.768;2022-10-31T03:42:39;8.70;71.90
38265;DHT22;24062;47.480;8.768;2022-10-31T03:45:11;8.70;72.00
38265;DHT22;24062;47.480;8.768;2022-10-31T03:47:40;8.60;71.90
38265;DHT22;24062;47.480;8.768;2022-10-31T03:50:09;8.60;71.80
38265;DHT22;24062;47.480;8.768;2022-10-31T03:52:42;8.60;71.90
38265;DHT22;24062;47.480;8.768;2022-10-31T03:55:16;8.60;71.90
38265;DHT22;24062;47.480;8.768;2022-10-31T03:57:48;8.60;71.90
38265;DHT22;24062;47.480;8.768;2022-10-31T04:00:18;8.50;72.10
38265;DHT22;24062;47.480;8.768;2022-10-31T04:02:49;8.50;72.10
38265;DHT22;24062;47.480;8.768;2022-10-31T04:05:17;8.50;72.00
38265;DHT22;24062;47.480;8.768;2022-10-31T04:07:47;8.50;72.00
38265;DHT22;24062;47.480;8.768;2022-10-31T04:10:16;8.50;72.00
38265;DHT22;24062;47.480;8.768;2022-10-31T04:12:48;8.50;72.00
38265;DHT22;24062;47.480;8.768;2022-10-31T04:15:16;8.40;72.00
38265;DHT22;24062;47.480;8.768;2022-10-31T04:17:45;8.50;72.30
38265;DHT22;24062;47.480;8.768;2022-10-31T04:20:15;8.50;72.30
38265;DHT22;24062;47.480;8.768;2022-10-31T04:22:42;8.40;72.90
38265;DHT22;24062;47.480;8.768;2022-10-31T04:25:09;8.50;72.40
38265;DHT22;24062;47.480;8.768;2022-10-31T04:27:36;8.40;72.40
38265;DHT22;24062;47.480;8.768;2022-10-31T04:30:04;8.50;72.40
38265;DHT22;24062;47.480;8.768;2022-10-31T04:32:31;8.40;72.10
38265;DHT22;24062;47.480;8.768;2022-10-31T04:34:59;8.40;72.10
38265;DHT22;24062;47.480;8.768;2022-10-31T04:37:26;8.50;72.40
38265;DHT22;24062;47.480;8.768;2022-10-31T04:39:53;8.40;72.30
38265;DHT22;24062;47.480;8.768;2022-10-31T04:42:19;8.40;72.30
38265;DHT22;24062;47.480;8.768;2022-10-31T04:44:46;8.40;72.40
38265;DHT22;24062;47.480;8.768;2022-10-31T04:47:13;8.30;72.30
38265;DHT22;24062;47.480;8.768;2022-10-31T04:49:40;8.30;72.40
38265;DHT22;24062;47.480;8.768;2022-10-31T04:52:08;8.30;72.40
38265;DHT22;24062;47.480;8.768;2022-10-31T04:54:35;8.30;72.50
38265;DHT22;24062;47.480;8.768;2022-10-31T04:57:02;8.30;72.60
38265;DHT22;24062;47.480;8.768;2022-10-31T04:59:29;8.30;72.60
38265;DHT22;24062;47.480;8.768;2022-10-31T05:01:56;8.30;73.30
38265;DHT22;24062;47.480;8.768;2022-10-31T05:04:23;8.20;72.40
38265;DHT22;24062;47.480;8.768;2022-10-31T05:06:49;8.20;72.50
38265;DHT22;24062;47.480;8.768;2022-10-31T05:09:18;8.20;72.70
38265;DHT22;24062;47.480;8.768;2022-10-31T05:11:44;8.20;72.80
38265;DHT22;24062;47.480;8.768;2022-10-31T05:14:11;8.20;72.80
38265;DHT22;24062;47.480;8.768;2022-10-31T05:16:38;8.20;72.80
38265;DHT22;24062;47.480;8.768;2022-10-31T05:19:05;8.20;72.90
38265;DHT22;24062;47.480;8.768;2022-10-31T05:21:32;8.20;72.90
38265;DHT22;24062;47.480;8.768;2022-10-31T05:23:59;8.20;72.90
38265;DHT22;24062;47.480;8.768;2022-10-31T05:26:27;8.20;72.90
38265;DHT22;24062;47.480;8.768;2022-10-31T05:28:54;8.20;72.70
38265;DHT22;24062;47.480;8.768;2022-10-31T05:31:21;8.20;72.60
38265;DHT22;24062;47.480;8.768;2022-10-31T05:33:47;8.10;72.70
38265;DHT22;24062;47.480;8.768;2022-10-31T05:36:14;8.10;72.90
38265;DHT22;24062;47.480;8.768;2022-10-31T05:38:41;8.10;72.90
38265;DHT22;24062;47.480;8.768;2022-10-31T05:41:08;8.10;72.90
38265;DHT22;24062;47.480;8.768;2022-10-31T05:43:37;8.10;72.90
38265;DHT22;24062;47.480;8.768;2022-10-31T05:46:04;8.10;72.90
38265;DHT22;24062;47.480;8.768;2022-10-31T05:48:31;8.10;73.00
38265;DHT22;24062;47.480;8.768;2022-10-31T05:50:57;8.10;73.10
38265;DHT22;24062;47.480;8.768;2022-10-31T05:53:24;8.10;73.20
38265;DHT22;24062;47.480;8.768;2022-10-31T05:55:51;8.10;73.10
38265;DHT22;24062;47.480;8.768;2022-10-31T05:58:18;8.00;73.00
38265;DHT22;24062;47.480;8.768;2022-10-31T06:00:46;8.00;72.90
38265;DHT22;24062;47.480;8.768;2022-10-31T06:03:13;8.10;73.10
38265;DHT22;24062;47.480;8.768;2022-10-31T06:05:40;8.10;73.00
38265;DHT22;24062;47.480;8.768;2022-10-31T06:08:07;8.10;73.00
38265;DHT22;24062;47.480;8.768;2022-10-31T06:10:34;8.10;72.90
38265;DHT22;24062;47.480;8.768;2022-10-31T06:13:01;8.10;72.80
38265;DHT22;24062;47.480;8.768;2022-10-31T06:15:28;8.10;73.00
38265;DHT22;24062;47.480;8.768;2022-10-31T06:18:00;8.00;73.10
38265;DHT22;24062;47.480;8.768;2022-10-31T06:20:28;8.10;73.30
38265;DHT22;24062;47.480;8.768;2022-10-31T06:22:55;8.20;73.30
38265;DHT22;24062;47.480;8.768;2022-10-31T06:25:21;8.20;73.20
38265;DHT22;24062;47.480;8.768;2022-10-31T06:27:48;8.20;73.20
38265;DHT22;24062;47.480;8.768;2022-10-31T06:30:15;8.30;73.20
38265;DHT22;24062;47.480;8.768;2022-10-31T06:32:42;8.30;73.20
38265;DHT22;24062;47.480;8.768;2022-10-31T06:35:10;8.30;73.10
38265;DHT22;24062;47.480;8.768;2022-10-31T06:37:38;8.40;73.30
38265;DHT22;24062;47.480;8.768;2022-10-31T06:40:05;8.40;73.10
38265;DHT22;24062;47.480;8.768;2022-10-31T06:42:32;8.40;73.40
38265;DHT22;24062;47.480;8.768;2022-10-31T06:44:59;8.50;73.60
38265;DHT22;24062;47.480;8.768;2022-10-31T06:47:26;8.60;73.60
38265;DHT22;24062;47.480;8.768;2022-10-31T06:49:53;8.70;73.70
38265;DHT22;24062;47.480;8.768;2022-10-31T06:52:21;8.80;74.00
38265;DHT22;24062;47.480;8.768;2022-10-31T06:54:49;9.00;74.20
38265;DHT22;24062;47.480;8.768;2022-10-31T06:57:16;9.10;74.30
38265;DHT22;24062;47.480;8.768;2022-10-31T06:59:43;9.20;74.30
38265;DHT22;24062;47.480;8.768;2022-10-31T07:02:10;9.40;74.40
38265;DHT22;24062;47.480;8.768;2022-10-31T07:04:37;9.50;74.40
38265;DHT22;24062;47.480;8.768;2022-10-31T07:07:04;9.60;74.50
38265;DHT22;24062;47.480;8.768;2022-10-31T07:09:32;9.80;74.60
38265;DHT22;24062;47.480;8.768;2022-10-31T07:11:59;9.80;74.40
38265;DHT22;24062;47.480;8.768;2022-10-31T07:14:26;9.90;75.20
38265;DHT22;24062;47.480;8.768;2022-10-31T07:16:53;10.00;73.20
38265;DHT22;24062;47.480;8.768;2022-10-31T07:19:20;10.10;73.40
38265;DHT22;24062;47.480;8.768;2022-10-31T07:21:47;10.20;73.70
38265;DHT22;24062;47.480;8.768;2022-10-31T07:24:14;10.30;73.90
38265;DHT22;24062;47.480;8.768;2022-10-31T07:26:42;10.50;74.10
38265;DHT22;24062;47.480;8.768;2022-10-31T07:29:11;10.70;74.20
38265;DHT22;24062;47.480;8.768;2022-10-31T07:31:38;10.80;74.20
38265;DHT22;24062;47.480;8.768;2022-10-31T07:34:05;10.90;74.20
38265;DHT22;24062;47.480;8.768;2022-10-31T07:36:32;11.10;74.50
38265;DHT22;24062;47.480;8.768;2022-10-31T07:38:59;11.30;74.60
38265;DHT22;24062;47.480;8.768;2022-10-31T07:41:27;11.40;74.50
38265;DHT22;24062;47.480;8.768;2022-10-31T07:43:56;11.60;74.60
38265;DHT22;24062;47.480;8.768;2022-10-31T07:46:22;11.80;74.50
38265;DHT22;24062;47.480;8.768;2022-10-31T07:48:49;12.00;74.40
38265;DHT22;24062;47.480;8.768;2022-10-31T07:51:16;12.20;74.30
38265;DHT22;24062;47.480;8.768;2022-10-31T07:53:43;12.40;74.40
38265;DHT22;24062;47.480;8.768;2022-10-31T07:56:10;12.60;74.50
38265;DHT22;24062;47.480;8.768;2022-10-31T07:58:37;12.80;74.40
38265;DHT22;24062;47.480;8.768;2022-10-31T08:01:05;13.00;74.30
38265;DHT22;24062;47.480;8.768;2022-10-31T08:03:32;13.20;74.30
38265;DHT22;24062;47.480;8.768;2022-10-31T08:05:59;13.30;73.90
38265;DHT22;24062;47.480;8.768;2022-10-31T08:08:26;13.40;74.00
38265;DHT22;24062;47.480;8.768;2022-10-31T08:10:54;13.30;73.90
38265;DHT22;24062;47.480;8.768;2022-10-31T08:13:21;13.30;74.50
38265;DHT22;24062;47.480;8.768;2022-10-31T08:15:48;13.30;74.90
38265;DHT22;24062;47.480;8.768;2022-10-31T08:18:18;13.40;75.40
38265;DHT22;24062;47.480;8.768;2022-10-31T08:20:47;13.60;75.70
38265;DHT22;24062;47.480;8.768;2022-10-31T08:23:14;13.70;75.90
38265;DHT22;24062;47.480;8.768;2022-10-31T08:25:41;13.80;75.90
38265;DHT22;24062;47.480;8.768;2022-10-31T08:28:10;14.00;76.30
38265;DHT22;24062;47.480;8.768;2022-10-31T08:30:37;14.20;76.50
38265;DHT22;24062;47.480;8.768;2022-10-31T08:33:07;14.30;76.60
38265;DHT22;24062;47.480;8.768;2022-10-31T08:35:37;14.50;76.60
38265;DHT22;24062;47.480;8.768;2022-10-31T08:38:04;14.60;76.60
38265;DHT22;24062;47.480;8.768;2022-10-31T08:40:32;14.80;77.00
38265;DHT22;24062;47.480;8.768;2022-10-31T08:43:00;15.00;77.10
38265;DHT22;24062;47.480;8.768;2022-10-31T08:45:27;15.20;77.10
38265;DHT22;24062;47.480;8.768;2022-10-31T08:47:57;15.30;77.10
38265;DHT22;24062;47.480;8.768;2022-10-31T08:50:25;15.40;76.80
38265;DHT22;24062;47.480;8.768;2022-10-31T08:52:53;15.40;76.10
38265;DHT22;24062;47.480;8.768;2022-10-31T08:55:20;15.30;75.90
38265;DHT22;24062;47.480;8.768;2022-10-31T08:57:47;15.30;76.20
38265;DHT22;24062;47.480;8.768;2022-10-31T09:00:14;15.20;75.80
38265;DHT22;24062;47.480;8.768;2022-10-31T09:02:41;15.20;76.40
38265;DHT22;24062;47.480;8.768;2022-10-31T09:05:08;15.40;77.30
38265;DHT22;24062;47.480;8.768;2022-10-31T09:07:35;15.70;77.50
38265;DHT22;24062;47.480;8.768;2022-10-31T09:10:03;15.80;77.30
38265;DHT22;24062;47.480;8.768;2022-10-31T09:12:30;16.00;77.20
38265;DHT22;24062;47.480;8.768;2022-10-31T09:14:57;16.10;77.20
38265;DHT22;24062;47.480;8.768;2022-10-31T09:17:26;16.30;77.30
38265;DHT22;24062;47.480;8.768;2022-10-31T09:19:54;16.50;77.90
38265;DHT22;24062;47.480;8.768;2022-10-31T09:22:21;16.80;77.30
38265;DHT22;24062;47.480;8.768;2022-10-31T09:24:48;16.90;77.30
38265;DHT22;24062;47.480;8.768;2022-10-31T09:27:16;17.00;76.40
38265;DHT22;24062;47.480;8.768;2022-10-31T09:29:43;17.10;76.90
38265;DHT22;24062;47.480;8.768;2022-10-31T09:32:10;17.30;77.10
38265;DHT22;24062;47.480;8.768;2022-10-31T09:34:37;17.40;76.80
38265;DHT22;24062;47.480;8.768;2022-10-31T09:37:04;17.60;76.90
38265;DHT22;24062;47.480;8.768;2022-10-31T09:39:30;17.80;77.00
38265;DHT22;24062;47.480;8.768;2022-10-31T09:42:23;18.00;76.30
38265;DHT22;24062;47.480;8.768;2022-10-31T09:44:59;17.90;75.60
38265;DHT22;24062;47.480;8.768;2022-10-31T09:47:38;18.10;76.00
38265;DHT22;24062;47.480;8.768;2022-10-31T09:50:14;18.20;75.30
38265;DHT22;24062;47.480;8.768;2022-10-31T09:52:47;18.50;76.10
38265;DHT22;24062;47.480;8.768;2022-10-31T09:55:17;18.80;76.10
38265;DHT22;24062;47.480;8.768;2022-10-31T09:57:47;19.00;75.80
38265;DHT22;24062;47.480;8.768;2022-10-31T10:00:17;19.20;75.40
38265;DHT22;24062;47.480;8.768;2022-10-31T10:02:47;19.50;75.70
38265;DHT22;24062;47.480;8.768;2022-10-31T10:05:20;19.70;74.60
38265;DHT22;24062;47.480;8.768;2022-10-31T10:07:55;19.70;73.90
38265;DHT22;24062;47.480;8.768;2022-10-31T10:10:32;19.60;72.70
38265;DHT22;24062;47.480;8.768;2022-10-31T10:13:16;19.50;73.30
38265;DHT22;24062;47.480;8.768;2022-10-31T10:15:55;19.50;72.90
38265;DHT22;24062;47.480;8.768;2022-10-31T10:18:32;19.40;72.00
38265;DHT22;24062;47.480;8.768;2022-10-31T10:21:16;19.30;72.10
38265;DHT22;24062;47.480;8.768;2022-10-31T10:23:56;19.40;72.70
38265;DHT22;24062;47.480;8.768;2022-10-31T10:26:33;19.40;72.70
38265;DHT22;24062;47.480;8.768;2022-10-31T10:29:10;19.50;73.20
38265;DHT22;24062;47.480;8.768;2022-10-31T10:31:42;19.60;72.10
38265;DHT22;24062;47.480;8.768;2022-10-31T10:34:14;19.50;71.80
38265;DHT22;24062;47.480;8.768;2022-10-31T10:36:46;19.50;71.40
38265;DHT22;24062;47.480;8.768;2022-10-31T10:39:18;19.30;71.10
38265;DHT22;24062;47.480;8.768;2022-10-31T10:41:48;19.20;70.90
38265;DHT22;24062;47.480;8.768;2022-10-31T10:44:30;19.20;70.90
38265;DHT22;24062;47.480;8.768;2022-10-31T10:47:15;19.10;70.80
38265;DHT22;24062;47.480;8.768;2022-10-31T10:50:01;19.10;70.30
38265;DHT22;24062;47.480;8.768;2022-10-31T10:52:35;18.80;69.90
38265;DHT22;24062;47.480;8.768;2022-10-31T10:55:10;18.80;71.10
38265;DHT22;24062;47.480;8.768;2022-10-31T10:57:51;18.90;70.30
38265;DHT22;24062;47.480;8.768;2022-10-31T11:00:23;18.80;69.60
38265;DHT22;24062;47.480;8.768;2022-10-31T11:02:51;18.70;69.70
38265;DHT22;24062;47.480;8.768;2022-10-31T11:05:24;18.80;70.10
38265;DHT22;24062;47.480;8.768;2022-10-31T11:07:52;18.90;70.40
38265;DHT22;24062;47.480;8.768;2022-10-31T11:10:19;19.20;70.70
38265;DHT22;24062;47.480;8.768;2022-10-31T11:13:03;19.30;70.50
38265;DHT22;24062;47.480;8.768;2022-10-31T11:15:35;19.40;70.20
38265;DHT22;24062;47.480;8.768;2022-10-31T11:18:03;19.60;70.30
38265;DHT22;24062;47.480;8.768;2022-10-31T11:20:32;19.80;70.30
38265;DHT22;24062;47.480;8.768;2022-10-31T11:23:14;19.90;70.10
38265;DHT22;24062;47.480;8.768;2022-10-31T11:25:48;19.90;69.60
38265;DHT22;24062;47.480;8.768;2022-10-31T11:28:16;20.00;69.80
38265;DHT22;24062;47.480;8.768;2022-10-31T11:30:47;20.00;69.50
38265;DHT22;24062;47.480;8.768;2022-10-31T11:33:19;20.00;69.30
38265;DHT22;24062;47.480;8.768;2022-10-31T11:35:47;20.00;69.30
38265;DHT22;24062;47.480;8.768;2022-10-31T11:38:17;20.00;69.10
38265;DHT22;24062;47.480;8.768;2022-10-31T11:40:56;20.10;69.00
38265;DHT22;24062;47.480;8.768;2022-10-31T11:43:23;20.00;68.80
38265;DHT22;24062;47.480;8.768;2022-10-31T11:45:52;20.20;69.30
38265;DHT22;24062;47.480;8.768;2022-10-31T11:48:21;20.30;69.40
38265;DHT22;24062;47.480;8.768;2022-10-31T11:50:51;20.40;68.80
38265;DHT22;24062;47.480;8.768;2022-10-31T11:53:20;20.40;68.60
38265;DHT22;24062;47.480;8.768;2022-10-31T11:56:01;20.40;68.40
38265;DHT22;24062;47.480;8.768;2022-10-31T11:58:29;20.60;68.90
38265;DHT22;24062;47.480;8.768;2022-10-31T12:00:58;20.80;69.10
38265;DHT22;24062;47.480;8.768;2022-10-31T12:03:37;21.00;68.70
38265;DHT22;24062;47.480;8.768;2022-10-31T12:06:08;21.10;68.80
38265;DHT22;24062;47.480;8.768;2022-10-31T12:08:38;21.40;69.50
38265;DHT22;24062;47.480;8.768;2022-10-31T12:11:15;21.70;69.50
38265;DHT22;24062;47.480;8.768;2022-10-31T12:13:51;22.00;69.50
38265;DHT22;24062;47.480;8.768;2022-10-31T12:16:28;22.20;69.40
38265;DHT22;24062;47.480;8.768;2022-10-31T12:18:59;22.20;68.60
38265;DHT22;24062;47.480;8.768;2022-10-31T12:21:49;22.20;68.50
38265;DHT22;24062;47.480;8.768;2022-10-31T12:24:28;22.30;68.80
38265;DHT22;24062;47.480;8.768;2022-10-31T12:27:03;22.60;69.90
38265;DHT22;24062;47.480;8.768;2022-10-31T12:29:47;22.60;68.20
38265;DHT22;24062;47.480;8.768;2022-10-31T12:32:32;22.60;67.90
38265;DHT22;24062;47.480;8.768;2022-10-31T12:35:29;22.70;68.40
38265;DHT22;24062;47.480;8.768;2022-10-31T12:41:09;23.00;68.10
38265;DHT22;24062;47.480;8.768;2022-10-31T12:43:43;23.00;67.60
38265;DHT22;24062;47.480;8.768;2022-10-31T12:46:19;22.90;67.10
38265;DHT22;24062;47.480;8.768;2022-10-31T12:49:09;22.90;67.90
38265;DHT22;24062;47.480;8.768;2022-10-31T12:51:47;23.10;69.40
38265;DHT22;24062;47.480;8.768;2022-10-31T12:54:29;23.50;70.50
38265;DHT22;24062;47.480;8.768;2022-10-31T12:57:04;23.90;70.90
38265;DHT22;24062;47.480;8.768;2022-10-31T12:59:36;24.30;73.00
38265;DHT22;24062;47.480;8.768;2022-10-31T13:02:13;24.80;74.10
38265;DHT22;24062;47.480;8.768;2022-10-31T13:04:48;25.40;74.80
38265;DHT22;24062;47.480;8.768;2022-10-31T13:07:20;26.10;74.80
38265;DHT22;24062;47.480;8.768;2022-10-31T13:09:56;26.80;74.00
38265;DHT22;24062;47.480;8.768;2022-10-31T13:12:24;27.10;72.40
38265;DHT22;24062;47.480;8.768;2022-10-31T13:14:55;27.50;73.40
38265;DHT22;24062;47.480;8.768;2022-10-31T13:17:27;28.10;73.90
38265;DHT22;24062;47.480;8.768;2022-10-31T13:20:11;28.50;72.50
38265;DHT22;24062;47.480;8.768;2022-10-31T13:22:44;29.30;72.00
38265;DHT22;24062;47.480;8.768;2022-10-31T13:25:15;30.20;70.80
38265;DHT22;24062;47.480;8.768;2022-10-31T13:27:46;31.00;69.50
38265;DHT22;24062;47.480;8.768;2022-10-31T13:30:16;31.70;67.70
38265;DHT22;24062;47.480;8.768;2022-10-31T13:32:46;32.40;66.00
38265;DHT22;24062;47.480;8.768;2022-10-31T13:35:21;33.10;63.60
38265;DHT22;24062;47.480;8.768;2022-10-31T13:38:02;33.70;59.80
38265;DHT22;24062;47.480;8.768;2022-10-31T13:40:37;34.20;58.40
38265;DHT22;24062;47.480;8.768;2022-10-31T13:43:11;34.90;56.20
38265;DHT22;24062;47.480;8.768;2022-10-31T13:45:48;35.40;54.60
38265;DHT22;24062;47.480;8.768;2022-10-31T13:48:33;35.70;52.60
38265;DHT22;24062;47.480;8.768;2022-10-31T13:51:04;36.10;51.90
38265;DHT22;24062;47.480;8.768;2022-10-31T13:53:38;36.90;51.20
38265;DHT22;24062;47.480;8.768;2022-10-31T13:56:18;37.60;49.30
38265;DHT22;24062;47.480;8.768;2022-10-31T13:59:14;37.50;46.80
38265;DHT22;24062;47.480;8.768;2022-10-31T14:01:50;37.50;45.70
38265;DHT22;24062;47.480;8.768;2022-10-31T14:04:20;37.80;45.10
38265;DHT22;24062;47.480;8.768;2022-10-31T14:06:58;38.20;45.20
38265;DHT22;24062;47.480;8.768;2022-10-31T14:09:33;38.50;43.90
38265;DHT22;24062;47.480;8.768;2022-10-31T14:12:03;38.60;43.40
38265;DHT22;24062;47.480;8.768;2022-10-31T14:14:44;38.60;42.80
38265;DHT22;24062;47.480;8.768;2022-10-31T14:17:19;38.50;41.50
38265;DHT22;24062;47.480;8.768;2022-10-31T14:20:26;38.20;41.10
38265;DHT22;24062;47.480;8.768;2022-10-31T14:23:10;37.70;40.60
38265;DHT22;24062;47.480;8.768;2022-10-31T14:25:38;37.50;40.10
38265;DHT22;24062;47.480;8.768;2022-10-31T14:28:18;37.20;39.80
38265;DHT22;24062;47.480;8.768;2022-10-31T14:30:52;36.50;39.10
38265;DHT22;24062;47.480;8.768;2022-10-31T14:33:20;36.00;39.40
38265;DHT22;24062;47.480;8.768;2022-10-31T14:35:55;35.80;40.00
38265;DHT22;24062;47.480;8.768;2022-10-31T14:38:45;36.00;40.20
38265;DHT22;24062;47.480;8.768;2022-10-31T14:41:31;36.00;39.70
38265;DHT22;24062;47.480;8.768;2022-10-31T14:44:29;35.80;39.50
38265;DHT22;24062;47.480;8.768;2022-10-31T14:47:09;35.40;39.30
38265;DHT22;24062;47.480;8.768;2022-10-31T14:50:01;35.10;39.30
38265;DHT22;24062;47.480;8.768;2022-10-31T14:52:31;34.90;39.40
38265;DHT22;24062;47.480;8.768;2022-10-31T14:55:00;34.80;39.60
38265;DHT22;24062;47.480;8.768;2022-10-31T14:57:30;34.70;39.60
38265;DHT22;24062;47.480;8.768;2022-10-31T15:00:01;34.50;39.40
38265;DHT22;24062;47.480;8.768;2022-10-31T15:02:36;34.10;39.10
38265;DHT22;24062;47.480;8.768;2022-10-31T15:05:08;33.60;39.00
38265;DHT22;24062;47.480;8.768;2022-10-31T15:07:35;32.90;38.60
38265;DHT22;24062;47.480;8.768;2022-10-31T15:10:20;31.90;38.20
38265;DHT22;24062;47.480;8.768;2022-10-31T15:12:47;30.30;37.90
38265;DHT22;24062;47.480;8.768;2022-10-31T15:15:19;28.60;37.70
38265;DHT22;24062;47.480;8.768;2022-10-31T15:17:48;27.10;38.50
38265;DHT22;24062;47.480;8.768;2022-10-31T15:20:19;25.80;39.40
38265;DHT22;24062;47.480;8.768;2022-10-31T15:22:47;24.70;40.10
38265;DHT22;24062;47.480;8.768;2022-10-31T15:25:19;24.00;40.50
38265;DHT22;24062;47.480;8.768;2022-10-31T15:27:47;23.50;41.20
38265;DHT22;24062;47.480;8.768;2022-10-31T15:30:17;23.10;41.50
38265;DHT22;24062;47.480;8.768;2022-10-31T15:32:45;22.70;41.70
38265;DHT22;24062;47.480;8.768;2022-10-31T15:35:20;22.40;41.90
38265;DHT22;24062;47.480;8.768;2022-10-31T15:37:48;22.10;42.60
38265;DHT22;24062;47.480;8.768;2022-10-31T15:40:18;21.90;42.30
38265;DHT22;24062;47.480;8.768;2022-10-31T15:42:50;21.50;42.60
38265;DHT22;24062;47.480;8.768;2022-10-31T15:45:19;21.00;43.20
38265;DHT22;24062;47.480;8.768;2022-10-31T15:47:54;20.70;43.20
38265;DHT22;24062;47.480;8.768;2022-10-31T15:50:24;20.40;43.90
38265;DHT22;24062;47.480;8.768;2022-10-31T15:52:53;20.20;44.50
38265;DHT22;24062;47.480;8.768;2022-10-31T15:55:24;20.10;44.60
38265;DHT22;24062;47.480;8.768;2022-10-31T15:57:53;19.80;44.50
38265;DHT22;24062;47.480;8.768;2022-10-31T16:00:24;19.50;44.90
38265;DHT22;24062;47.480;8.768;2022-10-31T16:03:03;19.30;45.60
38265;DHT22;24062;47.480;8.768;2022-10-31T16:05:36;19.20;46.50